Forside
METAR-TAF:

METAR-TAF

Lufthavne :

Chicago O'Hare International Airport

Chicago, Illinois, USA

Breddekreds: 41-58-47N, længdekreds: 087-54-16W, højde: 203 m

Aktuelle vejr

Denne rapport blev lavet for 52 minutter siden, kl. 15:51 UTC
Vind 5 kt fra nordvest
Temperatur 25°C
Fugtighed 44%
Tryk 1020 hPa
Sigt: 16.1 km
Spredte skyer i en højde af 5000 ft
Spredte skyer i en højde af 25000 ft

METAR: KORD 031551Z 31005KT 10SM SCT050 SCT250 25/12 A3011 RMK AO2 SLP192 T02500122

Tid: 11:43 (16:43 UTC)

Vejrudsigter

Denne rapport blev lavet for 1 time og 44 minutter siden, kl. 14:59 UTC
Foreløbig gælder fra 03 på 15 UTC til 04 på 18 UTC
Vind 3 kt fra nordnordvest
Sigt: 10 km
Nogle få skyer i en højde af 9000 ft
Fra 03 på 1900 UTC
Vind 8 kt fra øst
Sigt: 10 km
Spredte skyer i en højde af 6000 ft
Fra 04 på 0300 UTC
Vind kt fra nord
Sigt: 10 km
Nogle få skyer i en højde af 6000 ft

TAF: KORD 031459Z 0315/0418 33003KT P6SM FEW090 FM031900 08008KT P6SM SCT060 FM040300 00000KT P6SM FEW060

Vejrobservationer og prognoser fra mere end 4000 lufthavne (METAR og TAF).

De gule og røde prikker repræsenterer de meteorologiske stationer.

Flyt musen over at se navnet på stationen.

Så klik over at se vejr observationer og prognoser.

At skifte det kort: Klik på de grønne knapper med et sort kors for at zoome ind; på den grønne knap med en bindestreg for at zoome ud; eller på de grønne pile for tilstødende kort.


METAR-TAF: